sensor_id;sensor_type;location;lat;lon;timestamp;P1;durP1;ratioP1;P2;durP2;ratioP2
44854;SDS011;30591;48.228;16.398;2022-10-31T00:01:30;28.60;;;15.33;;
44854;SDS011;30591;48.228;16.398;2022-10-31T00:04:03;36.67;;;21.13;;
44854;SDS011;30591;48.228;16.398;2022-10-31T00:06:32;33.70;;;18.30;;
44854;SDS011;30591;48.228;16.398;2022-10-31T00:09:01;33.77;;;17.13;;
44854;SDS011;30591;48.228;16.398;2022-10-31T00:11:29;27.57;;;15.73;;
44854;SDS011;30591;48.228;16.398;2022-10-31T00:13:57;31.30;;;17.33;;
44854;SDS011;30591;48.228;16.398;2022-10-31T00:16:26;25.30;;;14.53;;
44854;SDS011;30591;48.228;16.398;2022-10-31T00:18:55;29.10;;;16.50;;
44854;SDS011;30591;48.228;16.398;2022-10-31T00:21:26;28.43;;;15.03;;
44854;SDS011;30591;48.228;16.398;2022-10-31T00:23:56;29.47;;;15.97;;
44854;SDS011;30591;48.228;16.398;2022-10-31T00:26:29;23.33;;;14.53;;
44854;SDS011;30591;48.228;16.398;2022-10-31T00:28:59;33.97;;;15.83;;
44854;SDS011;30591;48.228;16.398;2022-10-31T00:31:30;27.27;;;14.43;;
44854;SDS011;30591;48.228;16.398;2022-10-31T00:33:59;26.47;;;14.13;;
44854;SDS011;30591;48.228;16.398;2022-10-31T00:36:27;27.03;;;14.43;;
44854;SDS011;30591;48.228;16.398;2022-10-31T00:38:55;24.17;;;13.93;;
44854;SDS011;30591;48.228;16.398;2022-10-31T00:41:25;22.70;;;13.33;;
44854;SDS011;30591;48.228;16.398;2022-10-31T00:43:52;22.90;;;13.80;;
44854;SDS011;30591;48.228;16.398;2022-10-31T00:46:25;27.27;;;14.03;;
44854;SDS011;30591;48.228;16.398;2022-10-31T00:48:53;26.80;;;13.43;;
44854;SDS011;30591;48.228;16.398;2022-10-31T00:51:20;20.60;;;12.60;;
44854;SDS011;30591;48.228;16.398;2022-10-31T00:53:48;22.23;;;13.23;;
44854;SDS011;30591;48.228;16.398;2022-10-31T00:56:16;20.60;;;12.83;;
44854;SDS011;30591;48.228;16.398;2022-10-31T00:58:44;23.57;;;12.97;;
44854;SDS011;30591;48.228;16.398;2022-10-31T01:01:11;22.53;;;12.40;;
44854;SDS011;30591;48.228;16.398;2022-10-31T01:03:41;20.53;;;12.60;;
44854;SDS011;30591;48.228;16.398;2022-10-31T01:06:13;24.63;;;12.83;;
44854;SDS011;30591;48.228;16.398;2022-10-31T01:08:42;20.73;;;12.13;;
44854;SDS011;30591;48.228;16.398;2022-10-31T01:11:14;22.00;;;13.17;;
44854;SDS011;30591;48.228;16.398;2022-10-31T01:13:44;26.43;;;13.07;;
44854;SDS011;30591;48.228;16.398;2022-10-31T01:16:16;26.30;;;13.40;;
44854;SDS011;30591;48.228;16.398;2022-10-31T01:18:46;26.33;;;14.20;;
44854;SDS011;30591;48.228;16.398;2022-10-31T01:21:15;24.50;;;13.87;;
44854;SDS011;30591;48.228;16.398;2022-10-31T01:23:49;27.30;;;14.53;;
44854;SDS011;30591;48.228;16.398;2022-10-31T01:26:21;24.83;;;13.83;;
44854;SDS011;30591;48.228;16.398;2022-10-31T01:28:59;24.47;;;13.17;;
44854;SDS011;30591;48.228;16.398;2022-10-31T01:31:32;22.80;;;13.87;;
44854;SDS011;30591;48.228;16.398;2022-10-31T01:34:03;20.53;;;13.17;;
44854;SDS011;30591;48.228;16.398;2022-10-31T01:36:35;23.13;;;13.40;;
44854;SDS011;30591;48.228;16.398;2022-10-31T01:39:05;22.03;;;13.57;;
44854;SDS011;30591;48.228;16.398;2022-10-31T01:41:39;23.53;;;14.47;;
44854;SDS011;30591;48.228;16.398;2022-10-31T01:46:53;25.07;;;14.30;;
44854;SDS011;30591;48.228;16.398;2022-10-31T01:52:12;22.73;;;13.80;;
44854;SDS011;30591;48.228;16.398;2022-10-31T01:54:53;24.47;;;12.97;;
44854;SDS011;30591;48.228;16.398;2022-10-31T01:57:27;21.63;;;12.73;;
44854;SDS011;30591;48.228;16.398;2022-10-31T02:00:01;24.23;;;13.90;;
44854;SDS011;30591;48.228;16.398;2022-10-31T02:02:39;21.73;;;13.67;;
44854;SDS011;30591;48.228;16.398;2022-10-31T02:05:09;24.67;;;14.00;;
44854;SDS011;30591;48.228;16.398;2022-10-31T02:10:30;22.83;;;13.53;;
44854;SDS011;30591;48.228;16.398;2022-10-31T02:13:01;19.53;;;12.83;;
44854;SDS011;30591;48.228;16.398;2022-10-31T02:15:35;18.63;;;12.37;;
44854;SDS011;30591;48.228;16.398;2022-10-31T02:18:05;21.00;;;13.00;;
44854;SDS011;30591;48.228;16.398;2022-10-31T02:20:39;19.53;;;12.07;;
44854;SDS011;30591;48.228;16.398;2022-10-31T02:26:23;18.40;;;12.50;;
44854;SDS011;30591;48.228;16.398;2022-10-31T02:29:16;19.50;;;12.70;;
44854;SDS011;30591;48.228;16.398;2022-10-31T02:32:13;19.23;;;12.13;;
44854;SDS011;30591;48.228;16.398;2022-10-31T02:34:58;22.43;;;13.47;;
44854;SDS011;30591;48.228;16.398;2022-10-31T02:40:39;19.33;;;11.80;;
44854;SDS011;30591;48.228;16.398;2022-10-31T02:46:44;19.00;;;11.43;;
44854;SDS011;30591;48.228;16.398;2022-10-31T02:50:00;19.37;;;12.17;;
44854;SDS011;30591;48.228;16.398;2022-10-31T02:52:20;20.57;;;12.33;;
44854;SDS011;30591;48.228;16.398;2022-10-31T02:54:55;22.03;;;12.83;;
44854;SDS011;30591;48.228;16.398;2022-10-31T02:57:31;21.50;;;12.63;;
44854;SDS011;30591;48.228;16.398;2022-10-31T03:00:03;19.60;;;11.53;;
44854;SDS011;30591;48.228;16.398;2022-10-31T03:13:46;17.00;;;11.13;;
44854;SDS011;30591;48.228;16.398;2022-10-31T03:18:55;18.67;;;11.20;;
44854;SDS011;30591;48.228;16.398;2022-10-31T03:24:07;18.17;;;11.50;;
44854;SDS011;30591;48.228;16.398;2022-10-31T03:26:47;20.20;;;12.17;;
44854;SDS011;30591;48.228;16.398;2022-10-31T03:29:20;18.63;;;12.47;;
44854;SDS011;30591;48.228;16.398;2022-10-31T03:32:37;18.80;;;11.83;;
44854;SDS011;30591;48.228;16.398;2022-10-31T03:34:47;21.30;;;12.67;;
44854;SDS011;30591;48.228;16.398;2022-10-31T03:37:18;23.17;;;12.83;;
44854;SDS011;30591;48.228;16.398;2022-10-31T03:39:49;23.53;;;13.73;;
44854;SDS011;30591;48.228;16.398;2022-10-31T03:42:22;23.93;;;13.83;;
44854;SDS011;30591;48.228;16.398;2022-10-31T03:45:08;23.13;;;13.70;;
44854;SDS011;30591;48.228;16.398;2022-10-31T03:47:40;22.60;;;13.40;;
44854;SDS011;30591;48.228;16.398;2022-10-31T03:50:10;22.00;;;13.00;;
44854;SDS011;30591;48.228;16.398;2022-10-31T04:01:34;22.87;;;14.47;;
44854;SDS011;30591;48.228;16.398;2022-10-31T04:04:08;22.83;;;14.10;;
44854;SDS011;30591;48.228;16.398;2022-10-31T04:06:38;25.07;;;14.10;;
44854;SDS011;30591;48.228;16.398;2022-10-31T04:09:09;22.50;;;13.67;;
44854;SDS011;30591;48.228;16.398;2022-10-31T04:11:42;23.33;;;13.63;;
44854;SDS011;30591;48.228;16.398;2022-10-31T04:14:36;22.47;;;13.57;;
44854;SDS011;30591;48.228;16.398;2022-10-31T04:17:11;20.63;;;12.00;;
44854;SDS011;30591;48.228;16.398;2022-10-31T04:19:42;24.33;;;14.23;;
44854;SDS011;30591;48.228;16.398;2022-10-31T04:22:09;21.30;;;13.80;;
44854;SDS011;30591;48.228;16.398;2022-10-31T04:24:41;27.07;;;15.37;;
44854;SDS011;30591;48.228;16.398;2022-10-31T04:27:13;27.57;;;14.90;;
44854;SDS011;30591;48.228;16.398;2022-10-31T04:29:42;22.60;;;14.73;;
44854;SDS011;30591;48.228;16.398;2022-10-31T04:32:16;26.33;;;14.93;;
44854;SDS011;30591;48.228;16.398;2022-10-31T04:34:45;24.80;;;15.93;;
44854;SDS011;30591;48.228;16.398;2022-10-31T04:37:13;29.00;;;15.77;;
44854;SDS011;30591;48.228;16.398;2022-10-31T04:39:41;25.67;;;15.77;;
44854;SDS011;30591;48.228;16.398;2022-10-31T04:42:31;26.13;;;15.07;;
44854;SDS011;30591;48.228;16.398;2022-10-31T04:45:05;24.87;;;15.33;;
44854;SDS011;30591;48.228;16.398;2022-10-31T04:47:34;24.10;;;14.47;;
44854;SDS011;30591;48.228;16.398;2022-10-31T04:50:02;25.50;;;14.70;;
44854;SDS011;30591;48.228;16.398;2022-10-31T04:52:38;25.57;;;14.80;;
44854;SDS011;30591;48.228;16.398;2022-10-31T04:55:13;22.93;;;13.93;;
44854;SDS011;30591;48.228;16.398;2022-10-31T04:57:59;25.00;;;13.50;;
44854;SDS011;30591;48.228;16.398;2022-10-31T05:00:29;25.23;;;15.00;;
44854;SDS011;30591;48.228;16.398;2022-10-31T05:02:57;26.87;;;14.80;;
44854;SDS011;30591;48.228;16.398;2022-10-31T05:05:27;24.73;;;14.63;;
44854;SDS011;30591;48.228;16.398;2022-10-31T05:08:00;24.77;;;14.97;;
44854;SDS011;30591;48.228;16.398;2022-10-31T05:10:30;25.27;;;14.90;;
44854;SDS011;30591;48.228;16.398;2022-10-31T05:13:00;26.63;;;14.50;;
44854;SDS011;30591;48.228;16.398;2022-10-31T05:15:49;25.30;;;14.63;;
44854;SDS011;30591;48.228;16.398;2022-10-31T05:18:21;24.20;;;14.87;;
44854;SDS011;30591;48.228;16.398;2022-10-31T05:21:10;26.57;;;13.97;;
44854;SDS011;30591;48.228;16.398;2022-10-31T05:23:47;25.27;;;14.43;;
44854;SDS011;30591;48.228;16.398;2022-10-31T05:26:16;24.70;;;15.00;;
44854;SDS011;30591;48.228;16.398;2022-10-31T05:28:43;23.43;;;14.13;;
44854;SDS011;30591;48.228;16.398;2022-10-31T05:31:11;24.43;;;12.87;;
44854;SDS011;30591;48.228;16.398;2022-10-31T05:33:39;22.00;;;13.63;;
44854;SDS011;30591;48.228;16.398;2022-10-31T05:36:39;22.73;;;13.00;;
44854;SDS011;30591;48.228;16.398;2022-10-31T05:39:14;24.23;;;13.87;;
44854;SDS011;30591;48.228;16.398;2022-10-31T05:41:48;21.93;;;13.30;;
44854;SDS011;30591;48.228;16.398;2022-10-31T05:44:25;27.70;;;13.50;;
44854;SDS011;30591;48.228;16.398;2022-10-31T05:47:23;27.13;;;13.63;;
44854;SDS011;30591;48.228;16.398;2022-10-31T05:50:23;22.07;;;12.77;;
44854;SDS011;30591;48.228;16.398;2022-10-31T05:53:04;23.03;;;12.47;;
44854;SDS011;30591;48.228;16.398;2022-10-31T05:55:41;21.87;;;13.10;;
44854;SDS011;30591;48.228;16.398;2022-10-31T05:58:17;18.93;;;11.70;;
44854;SDS011;30591;48.228;16.398;2022-10-31T06:01:00;24.27;;;13.20;;
44854;SDS011;30591;48.228;16.398;2022-10-31T06:03:28;22.47;;;12.10;;
44854;SDS011;30591;48.228;16.398;2022-10-31T06:06:03;15.50;;;10.37;;
44854;SDS011;30591;48.228;16.398;2022-10-31T06:08:36;27.00;;;12.17;;
44854;SDS011;30591;48.228;16.398;2022-10-31T06:11:10;17.73;;;9.73;;
44854;SDS011;30591;48.228;16.398;2022-10-31T06:13:55;15.17;;;9.50;;
44854;SDS011;30591;48.228;16.398;2022-10-31T06:16:34;17.07;;;9.17;;
44854;SDS011;30591;48.228;16.398;2022-10-31T06:19:21;15.23;;;8.63;;
44854;SDS011;30591;48.228;16.398;2022-10-31T06:21:53;13.97;;;8.53;;
44854;SDS011;30591;48.228;16.398;2022-10-31T06:24:22;13.53;;;8.23;;
44854;SDS011;30591;48.228;16.398;2022-10-31T06:26:52;11.57;;;7.87;;
44854;SDS011;30591;48.228;16.398;2022-10-31T06:29:20;13.73;;;7.83;;
44854;SDS011;30591;48.228;16.398;2022-10-31T06:32:03;11.77;;;7.60;;
44854;SDS011;30591;48.228;16.398;2022-10-31T06:34:39;10.20;;;6.90;;
44854;SDS011;30591;48.228;16.398;2022-10-31T06:37:14;12.80;;;7.50;;
44854;SDS011;30591;48.228;16.398;2022-10-31T06:39:46;14.83;;;7.87;;
44854;SDS011;30591;48.228;16.398;2022-10-31T06:42:17;12.00;;;8.23;;
44854;SDS011;30591;48.228;16.398;2022-10-31T06:44:47;15.00;;;8.13;;
44854;SDS011;30591;48.228;16.398;2022-10-31T06:47:43;16.70;;;9.57;;
44854;SDS011;30591;48.228;16.398;2022-10-31T06:50:51;13.20;;;8.63;;
44854;SDS011;30591;48.228;16.398;2022-10-31T06:53:27;13.40;;;9.13;;
44854;SDS011;30591;48.228;16.398;2022-10-31T06:56:01;14.30;;;9.33;;
44854;SDS011;30591;48.228;16.398;2022-10-31T06:58:34;18.10;;;9.33;;
44854;SDS011;30591;48.228;16.398;2022-10-31T07:01:12;15.80;;;10.43;;
44854;SDS011;30591;48.228;16.398;2022-10-31T07:03:40;18.20;;;11.33;;
44854;SDS011;30591;48.228;16.398;2022-10-31T07:06:08;17.90;;;11.73;;
44854;SDS011;30591;48.228;16.398;2022-10-31T07:08:37;19.90;;;12.30;;
44854;SDS011;30591;48.228;16.398;2022-10-31T07:11:08;19.17;;;12.73;;
44854;SDS011;30591;48.228;16.398;2022-10-31T07:13:38;21.53;;;13.57;;
44854;SDS011;30591;48.228;16.398;2022-10-31T07:16:08;21.93;;;13.03;;
44854;SDS011;30591;48.228;16.398;2022-10-31T07:18:41;18.80;;;12.47;;
44854;SDS011;30591;48.228;16.398;2022-10-31T07:21:10;19.70;;;12.17;;
44854;SDS011;30591;48.228;16.398;2022-10-31T07:23:39;23.13;;;12.83;;
44854;SDS011;30591;48.228;16.398;2022-10-31T07:26:27;19.73;;;13.37;;
44854;SDS011;30591;48.228;16.398;2022-10-31T07:28:55;21.53;;;13.27;;
44854;SDS011;30591;48.228;16.398;2022-10-31T07:31:25;23.33;;;13.47;;
44854;SDS011;30591;48.228;16.398;2022-10-31T07:33:57;19.40;;;13.07;;
44854;SDS011;30591;48.228;16.398;2022-10-31T07:36:28;19.53;;;13.40;;
44854;SDS011;30591;48.228;16.398;2022-10-31T07:39:02;19.70;;;14.03;;
44854;SDS011;30591;48.228;16.398;2022-10-31T07:41:34;21.47;;;12.77;;
44854;SDS011;30591;48.228;16.398;2022-10-31T07:44:01;18.67;;;12.17;;
44854;SDS011;30591;48.228;16.398;2022-10-31T07:46:28;17.60;;;12.27;;
44854;SDS011;30591;48.228;16.398;2022-10-31T07:49:19;21.17;;;13.53;;
44854;SDS011;30591;48.228;16.398;2022-10-31T07:52:06;19.57;;;13.73;;
44854;SDS011;30591;48.228;16.398;2022-10-31T07:54:40;20.43;;;13.63;;
44854;SDS011;30591;48.228;16.398;2022-10-31T07:57:09;18.60;;;12.77;;
44854;SDS011;30591;48.228;16.398;2022-10-31T07:59:37;19.73;;;13.00;;
44854;SDS011;30591;48.228;16.398;2022-10-31T08:02:16;21.87;;;13.77;;
44854;SDS011;30591;48.228;16.398;2022-10-31T08:05:02;19.93;;;13.23;;
44854;SDS011;30591;48.228;16.398;2022-10-31T08:07:49;17.70;;;12.57;;
44854;SDS011;30591;48.228;16.398;2022-10-31T08:10:21;20.13;;;12.50;;
44854;SDS011;30591;48.228;16.398;2022-10-31T08:13:04;19.43;;;12.20;;
44854;SDS011;30591;48.228;16.398;2022-10-31T08:15:41;19.57;;;12.23;;
44854;SDS011;30591;48.228;16.398;2022-10-31T08:18:10;21.27;;;13.20;;
44854;SDS011;30591;48.228;16.398;2022-10-31T08:20:43;20.37;;;13.10;;
44854;SDS011;30591;48.228;16.398;2022-10-31T08:23:11;19.73;;;12.33;;
44854;SDS011;30591;48.228;16.398;2022-10-31T08:25:42;17.10;;;12.03;;
44854;SDS011;30591;48.228;16.398;2022-10-31T08:28:25;18.87;;;12.50;;
44854;SDS011;30591;48.228;16.398;2022-10-31T08:30:56;19.97;;;12.13;;
44854;SDS011;30591;48.228;16.398;2022-10-31T08:33:39;19.23;;;12.50;;
44854;SDS011;30591;48.228;16.398;2022-10-31T08:36:27;21.37;;;12.90;;
44854;SDS011;30591;48.228;16.398;2022-10-31T08:39:18;20.70;;;13.13;;
44854;SDS011;30591;48.228;16.398;2022-10-31T08:41:46;18.60;;;12.67;;
44854;SDS011;30591;48.228;16.398;2022-10-31T08:44:14;16.30;;;11.83;;
44854;SDS011;30591;48.228;16.398;2022-10-31T08:46:46;18.30;;;12.13;;
44854;SDS011;30591;48.228;16.398;2022-10-31T08:49:14;16.30;;;10.57;;
44854;SDS011;30591;48.228;16.398;2022-10-31T08:51:42;16.70;;;10.50;;
44854;SDS011;30591;48.228;16.398;2022-10-31T08:54:12;15.17;;;10.23;;
44854;SDS011;30591;48.228;16.398;2022-10-31T08:56:53;15.03;;;10.57;;
44854;SDS011;30591;48.228;16.398;2022-10-31T08:59:45;16.30;;;11.10;;
44854;SDS011;30591;48.228;16.398;2022-10-31T09:02:26;16.27;;;10.17;;
44854;SDS011;30591;48.228;16.398;2022-10-31T09:05:07;16.70;;;10.60;;
44854;SDS011;30591;48.228;16.398;2022-10-31T09:07:35;14.90;;;10.00;;
44854;SDS011;30591;48.228;16.398;2022-10-31T09:10:04;17.20;;;11.30;;
44854;SDS011;30591;48.228;16.398;2022-10-31T09:12:45;16.20;;;11.00;;
44854;SDS011;30591;48.228;16.398;2022-10-31T09:15:32;17.83;;;11.43;;
44854;SDS011;30591;48.228;16.398;2022-10-31T09:18:21;16.23;;;11.00;;
44854;SDS011;30591;48.228;16.398;2022-10-31T09:20:59;17.03;;;11.87;;
44854;SDS011;30591;48.228;16.398;2022-10-31T09:23:33;16.90;;;11.87;;
44854;SDS011;30591;48.228;16.398;2022-10-31T09:26:01;17.43;;;12.03;;
44854;SDS011;30591;48.228;16.398;2022-10-31T09:28:36;21.20;;;13.10;;
44854;SDS011;30591;48.228;16.398;2022-10-31T09:31:13;18.60;;;12.40;;
44854;SDS011;30591;48.228;16.398;2022-10-31T09:33:52;16.03;;;11.43;;
44854;SDS011;30591;48.228;16.398;2022-10-31T09:36:39;16.97;;;11.60;;
44854;SDS011;30591;48.228;16.398;2022-10-31T09:39:12;17.63;;;11.47;;
44854;SDS011;30591;48.228;16.398;2022-10-31T09:53:34;17.60;;;12.43;;
44854;SDS011;30591;48.228;16.398;2022-10-31T09:56:21;17.80;;;12.40;;
44854;SDS011;30591;48.228;16.398;2022-10-31T09:58:55;18.77;;;12.63;;
44854;SDS011;30591;48.228;16.398;2022-10-31T10:09:59;20.73;;;14.27;;
44854;SDS011;30591;48.228;16.398;2022-10-31T10:13:11;21.20;;;13.70;;
44854;SDS011;30591;48.228;16.398;2022-10-31T10:19:15;19.10;;;12.90;;
44854;SDS011;30591;48.228;16.398;2022-10-31T10:30:53;27.20;;;17.70;;
44854;SDS011;30591;48.228;16.398;2022-10-31T10:33:24;23.77;;;15.63;;
44854;SDS011;30591;48.228;16.398;2022-10-31T10:36:42;25.43;;;16.67;;
44854;SDS011;30591;48.228;16.398;2022-10-31T10:38:59;27.57;;;16.67;;
44854;SDS011;30591;48.228;16.398;2022-10-31T10:41:47;24.67;;;15.37;;
44854;SDS011;30591;48.228;16.398;2022-10-31T10:44:39;23.83;;;15.77;;
44854;SDS011;30591;48.228;16.398;2022-10-31T10:47:41;26.00;;;16.00;;
44854;SDS011;30591;48.228;16.398;2022-10-31T10:50:19;24.63;;;16.23;;
44854;SDS011;30591;48.228;16.398;2022-10-31T10:52:54;24.77;;;15.43;;
44854;SDS011;30591;48.228;16.398;2022-10-31T10:58:07;24.63;;;15.73;;
44854;SDS011;30591;48.228;16.398;2022-10-31T11:00:40;26.27;;;16.97;;
44854;SDS011;30591;48.228;16.398;2022-10-31T11:03:10;22.80;;;15.83;;
44854;SDS011;30591;48.228;16.398;2022-10-31T11:08:30;24.40;;;15.43;;
44854;SDS011;30591;48.228;16.398;2022-10-31T11:11:02;28.00;;;16.97;;
44854;SDS011;30591;48.228;16.398;2022-10-31T11:13:36;25.20;;;16.43;;
44854;SDS011;30591;48.228;16.398;2022-10-31T11:18:34;25.33;;;17.27;;
44854;SDS011;30591;48.228;16.398;2022-10-31T11:21:19;27.00;;;17.37;;
44854;SDS011;30591;48.228;16.398;2022-10-31T11:26:43;30.17;;;17.77;;
44854;SDS011;30591;48.228;16.398;2022-10-31T11:29:17;27.07;;;17.13;;
44854;SDS011;30591;48.228;16.398;2022-10-31T11:31:56;26.87;;;18.57;;
44854;SDS011;30591;48.228;16.398;2022-10-31T11:37:10;34.63;;;23.17;;
44854;SDS011;30591;48.228;16.398;2022-10-31T11:39:45;52.70;;;37.03;;
44854;SDS011;30591;48.228;16.398;2022-10-31T11:42:23;32.90;;;21.10;;
44854;SDS011;30591;48.228;16.398;2022-10-31T11:44:53;66.13;;;37.00;;
44854;SDS011;30591;48.228;16.398;2022-10-31T11:47:26;34.27;;;21.67;;
44854;SDS011;30591;48.228;16.398;2022-10-31T11:50:01;30.73;;;20.13;;
44854;SDS011;30591;48.228;16.398;2022-10-31T11:52:36;28.63;;;18.03;;
44854;SDS011;30591;48.228;16.398;2022-10-31T11:57:47;28.53;;;18.03;;
44854;SDS011;30591;48.228;16.398;2022-10-31T12:00:24;56.03;;;28.23;;
44854;SDS011;30591;48.228;16.398;2022-10-31T12:03:12;62.97;;;31.90;;
44854;SDS011;30591;48.228;16.398;2022-10-31T12:06:06;143.50;;;73.70;;
44854;SDS011;30591;48.228;16.398;2022-10-31T12:08:51;34.47;;;24.40;;
44854;SDS011;30591;48.228;16.398;2022-10-31T12:11:23;28.00;;;22.00;;
44854;SDS011;30591;48.228;16.398;2022-10-31T12:19:42;27.30;;;15.20;;
44854;SDS011;30591;48.228;16.398;2022-10-31T12:22:33;26.00;;;16.03;;
44854;SDS011;30591;48.228;16.398;2022-10-31T12:25:30;28.90;;;17.27;;
44854;SDS011;30591;48.228;16.398;2022-10-31T12:30:47;30.87;;;17.87;;
44854;SDS011;30591;48.228;16.398;2022-10-31T12:59:57;29.00;;;17.20;;
44854;SDS011;30591;48.228;16.398;2022-10-31T13:02:46;25.87;;;15.53;;
44854;SDS011;30591;48.228;16.398;2022-10-31T13:05:52;24.03;;;15.47;;
44854;SDS011;30591;48.228;16.398;2022-10-31T13:11:32;26.80;;;17.00;;
44854;SDS011;30591;48.228;16.398;2022-10-31T13:14:11;28.60;;;17.33;;
44854;SDS011;30591;48.228;16.398;2022-10-31T13:16:53;26.93;;;16.17;;
44854;SDS011;30591;48.228;16.398;2022-10-31T13:24:41;33.00;;;18.70;;
44854;SDS011;30591;48.228;16.398;2022-10-31T13:27:26;43.70;;;22.20;;
44854;SDS011;30591;48.228;16.398;2022-10-31T13:33:18;56.10;;;31.80;;
44854;SDS011;30591;48.228;16.398;2022-10-31T13:35:32;68.97;;;39.90;;
44854;SDS011;30591;48.228;16.398;2022-10-31T13:41:06;27.53;;;18.60;;
44854;SDS011;30591;48.228;16.398;2022-10-31T13:43:59;34.70;;;19.70;;
44854;SDS011;30591;48.228;16.398;2022-10-31T13:46:36;28.37;;;17.43;;
44854;SDS011;30591;48.228;16.398;2022-10-31T13:54:34;25.27;;;15.93;;
44854;SDS011;30591;48.228;16.398;2022-10-31T13:57:48;26.00;;;16.03;;
44854;SDS011;30591;48.228;16.398;2022-10-31T14:00:05;26.80;;;16.00;;
44854;SDS011;30591;48.228;16.398;2022-10-31T14:02:53;26.50;;;18.60;;
44854;SDS011;30591;48.228;16.398;2022-10-31T14:08:02;149.70;;;118.27;;
44854;SDS011;30591;48.228;16.398;2022-10-31T14:10:33;43.67;;;32.63;;
44854;SDS011;30591;48.228;16.398;2022-10-31T14:16:04;23.83;;;15.90;;
44854;SDS011;30591;48.228;16.398;2022-10-31T14:18:51;28.83;;;20.97;;
44854;SDS011;30591;48.228;16.398;2022-10-31T14:21:30;30.20;;;21.00;;
44854;SDS011;30591;48.228;16.398;2022-10-31T14:24:13;31.33;;;19.23;;
44854;SDS011;30591;48.228;16.398;2022-10-31T14:26:50;23.53;;;14.83;;
44854;SDS011;30591;48.228;16.398;2022-10-31T14:29:23;28.33;;;18.50;;
44854;SDS011;30591;48.228;16.398;2022-10-31T14:34:43;26.60;;;18.07;;
44854;SDS011;30591;48.228;16.398;2022-10-31T14:52:23;24.60;;;16.37;;
44854;SDS011;30591;48.228;16.398;2022-10-31T14:54:52;26.17;;;16.33;;
44854;SDS011;30591;48.228;16.398;2022-10-31T14:59:55;25.73;;;16.27;;
44854;SDS011;30591;48.228;16.398;2022-10-31T15:05:08;25.77;;;16.93;;
44854;SDS011;30591;48.228;16.398;2022-10-31T15:07:47;26.87;;;16.90;;
44854;SDS011;30591;48.228;16.398;2022-10-31T15:10:27;32.07;;;16.70;;
44854;SDS011;30591;48.228;16.398;2022-10-31T15:13:10;27.20;;;16.87;;
44854;SDS011;30591;48.228;16.398;2022-10-31T15:15:45;26.43;;;16.00;;
44854;SDS011;30591;48.228;16.398;2022-10-31T15:18:19;29.20;;;16.60;;
44854;SDS011;30591;48.228;16.398;2022-10-31T15:20:52;37.43;;;17.13;;
44854;SDS011;30591;48.228;16.398;2022-10-31T15:23:27;32.50;;;16.83;;
44854;SDS011;30591;48.228;16.398;2022-10-31T15:26:01;34.03;;;17.13;;
44854;SDS011;30591;48.228;16.398;2022-10-31T15:28:32;30.07;;;16.70;;
44854;SDS011;30591;48.228;16.398;2022-10-31T15:31:00;32.60;;;17.00;;
44854;SDS011;30591;48.228;16.398;2022-10-31T15:33:31;32.47;;;17.87;;
44854;SDS011;30591;48.228;16.398;2022-10-31T15:36:18;31.77;;;18.87;;
44854;SDS011;30591;48.228;16.398;2022-10-31T15:38:54;35.83;;;23.33;;
44854;SDS011;30591;48.228;16.398;2022-10-31T15:41:48;39.70;;;22.27;;
44854;SDS011;30591;48.228;16.398;2022-10-31T15:44:22;38.33;;;22.30;;
44854;SDS011;30591;48.228;16.398;2022-10-31T15:47:05;38.60;;;22.00;;
44854;SDS011;30591;48.228;16.398;2022-10-31T15:49:51;44.67;;;22.60;;
44854;SDS011;30591;48.228;16.398;2022-10-31T15:55:21;50.80;;;26.10;;
44854;SDS011;30591;48.228;16.398;2022-10-31T15:57:59;52.10;;;26.57;;
44854;SDS011;30591;48.228;16.398;2022-10-31T16:00:37;62.43;;;28.00;;
44854;SDS011;30591;48.228;16.398;2022-10-31T16:03:28;64.00;;;28.90;;
44854;SDS011;30591;48.228;16.398;2022-10-31T16:06:01;58.63;;;29.50;;
44854;SDS011;30591;48.228;16.398;2022-10-31T16:11:31;70.67;;;29.43;;
44854;SDS011;30591;48.228;16.398;2022-10-31T16:14:36;68.37;;;28.50;;
44854;SDS011;30591;48.228;16.398;2022-10-31T16:16:59;68.93;;;30.63;;
44854;SDS011;30591;48.228;16.398;2022-10-31T16:22:06;66.97;;;30.27;;
44854;SDS011;30591;48.228;16.398;2022-10-31T16:27:53;66.57;;;29.80;;
44854;SDS011;30591;48.228;16.398;2022-10-31T16:30:43;59.47;;;27.70;;
44854;SDS011;30591;48.228;16.398;2022-10-31T16:39:03;54.53;;;24.57;;
44854;SDS011;30591;48.228;16.398;2022-10-31T16:41:31;55.87;;;26.40;;
44854;SDS011;30591;48.228;16.398;2022-10-31T16:44:22;60.57;;;26.43;;
44854;SDS011;30591;48.228;16.398;2022-10-31T16:47:09;52.87;;;26.10;;
44854;SDS011;30591;48.228;16.398;2022-10-31T16:49:37;48.83;;;23.93;;
44854;SDS011;30591;48.228;16.398;2022-10-31T16:52:05;53.23;;;23.93;;
44854;SDS011;30591;48.228;16.398;2022-10-31T16:54:33;54.27;;;23.37;;
44854;SDS011;30591;48.228;16.398;2022-10-31T16:57:00;53.20;;;22.87;;
44854;SDS011;30591;48.228;16.398;2022-10-31T16:59:30;52.50;;;22.93;;
44854;SDS011;30591;48.228;16.398;2022-10-31T17:02:00;46.43;;;22.60;;
44854;SDS011;30591;48.228;16.398;2022-10-31T17:04:31;49.53;;;22.20;;
44854;SDS011;30591;48.228;16.398;2022-10-31T17:07:00;48.27;;;22.67;;
44854;SDS011;30591;48.228;16.398;2022-10-31T17:09:28;50.67;;;23.47;;
44854;SDS011;30591;48.228;16.398;2022-10-31T17:12:00;43.67;;;22.80;;
44854;SDS011;30591;48.228;16.398;2022-10-31T17:14:30;44.00;;;22.63;;
44854;SDS011;30591;48.228;16.398;2022-10-31T17:17:04;46.93;;;21.93;;
44854;SDS011;30591;48.228;16.398;2022-10-31T17:19:32;43.80;;;22.43;;
44854;SDS011;30591;48.228;16.398;2022-10-31T17:22:00;45.53;;;23.03;;
44854;SDS011;30591;48.228;16.398;2022-10-31T17:24:29;45.73;;;22.33;;
44854;SDS011;30591;48.228;16.398;2022-10-31T17:26:58;44.70;;;22.07;;
44854;SDS011;30591;48.228;16.398;2022-10-31T17:29:26;39.03;;;19.40;;
44854;SDS011;30591;48.228;16.398;2022-10-31T17:31:53;29.40;;;17.33;;
44854;SDS011;30591;48.228;16.398;2022-10-31T17:34:23;31.27;;;17.87;;
44854;SDS011;30591;48.228;16.398;2022-10-31T17:36:52;25.17;;;14.40;;
44854;SDS011;30591;48.228;16.398;2022-10-31T17:39:20;23.50;;;12.47;;
44854;SDS011;30591;48.228;16.398;2022-10-31T17:41:56;21.33;;;12.63;;
44854;SDS011;30591;48.228;16.398;2022-10-31T17:44:26;23.40;;;13.33;;
44854;SDS011;30591;48.228;16.398;2022-10-31T17:46:53;26.80;;;14.90;;
44854;SDS011;30591;48.228;16.398;2022-10-31T17:49:25;26.27;;;15.13;;
44854;SDS011;30591;48.228;16.398;2022-10-31T17:51:53;28.90;;;15.67;;
44854;SDS011;30591;48.228;16.398;2022-10-31T17:54:22;28.73;;;15.90;;
44854;SDS011;30591;48.228;16.398;2022-10-31T17:56:52;24.17;;;14.40;;
44854;SDS011;30591;48.228;16.398;2022-10-31T17:59:20;25.17;;;15.37;;
44854;SDS011;30591;48.228;16.398;2022-10-31T18:01:47;27.17;;;14.63;;
44854;SDS011;30591;48.228;16.398;2022-10-31T18:04:23;27.07;;;13.73;;
44854;SDS011;30591;48.228;16.398;2022-10-31T18:06:50;22.70;;;14.20;;
44854;SDS011;30591;48.228;16.398;2022-10-31T18:09:20;29.07;;;15.53;;